Time;durP1;ratioP1;P1;durP2;ratioP2;P2;SDS_P1;SDS_P2;PMS_P1;PMS_P2;Temp;Humidity;BMP_temperature;BMP_pressure;BME280_temperature;BME280_humidity;BME280_pressure;Samples;Min_cycle;Max_cycle;Signal;HPM_P1;HPM_P2
2023/01/26 00:01:17;;;;;;;;;;;27.40;99.90;;;;;;5014124;28;19921;-76
2023/01/26 00:03:44;;;;;;;;;;;27.50;99.90;;;;;;5014105;28;19916;-76
2023/01/26 00:06:12;;;;;;;;;;;27.80;99.90;;;;;;5014111;28;19932;-64
2023/01/26 00:08:39;;;;;;;;;;;28.00;99.90;;;;;;5013916;28;19924;-76
2023/01/26 00:11:07;;;;;;;;;;;28.00;99.90;;;;;;5012654;28;20019;-64
2023/01/26 00:13:33;;;;;;;;;;;28.10;99.90;;;;;;5013445;28;20479;-68
2023/01/26 00:16:00;;;;;;;;;;;28.20;99.90;;;;;;5013777;28;19921;-66
2023/01/26 00:18:27;;;;;;;;;;;28.30;99.90;;;;;;5013904;28;19952;-71
2023/01/26 00:20:57;;;;;;;;;;;28.20;99.90;;;;;;5013540;28;19960;-65
2023/01/26 00:23:25;;;;;;;;;;;28.30;99.90;;;;;;5012934;28;20337;-64
2023/01/26 00:25:51;;;;;;;;;;;28.30;99.90;;;;;;5012728;28;19925;-65
2023/01/26 00:28:18;;;;;;;;;;;28.30;99.90;;;;;;5013344;28;19913;-66
2023/01/26 00:30:44;;;;;;;;;;;28.60;99.90;;;;;;5013065;28;19914;-65
2023/01/26 00:33:11;;;;;;;;;;;28.60;99.90;;;;;;5013307;28;19964;-65
2023/01/26 00:35:38;;;;;;;;;;;28.90;99.90;;;;;;5013485;28;19931;-69
2023/01/26 00:38:04;;;;;;;;;;;29.00;99.90;;;;;;5013397;28;19948;-66
2023/01/26 00:40:31;;;;;;;;;;;29.60;99.90;;;;;;5013421;28;19909;-65
2023/01/26 00:42:58;;;;;;;;;;;29.70;99.90;;;;;;5013054;28;20357;-64
2023/01/26 00:45:24;;;;;;;;;;;30.00;99.90;;;;;;5011924;28;20413;-69
2023/01/26 00:47:51;;;;;;;;;;;30.10;99.90;;;;;;5013346;28;20368;-65
2023/01/26 00:50:18;;;;;;;;;;;30.20;99.90;;;;;;5013241;28;19917;-65
2023/01/26 00:52:44;;;;;;;;;;;30.20;99.90;;;;;;5012668;28;19910;-66
2023/01/26 00:55:11;;;;;;;;;;;30.10;99.90;;;;;;5013224;28;19910;-70
2023/01/26 00:57:38;;;;;;;;;;;29.80;99.90;;;;;;5012998;28;19909;-75
2023/01/26 01:00:05;;;;;;;;;;;29.70;99.90;;;;;;5012339;28;19921;-64
2023/01/26 01:02:32;;;;;;;;;;;29.60;99.90;;;;;;5012603;28;19971;-65
2023/01/26 01:04:58;;;;;;;;;;;29.70;99.90;;;;;;5013262;28;19909;-64
2023/01/26 01:07:25;;;;;;;;;;;29.70;99.90;;;;;;5012726;28;20013;-64
2023/01/26 01:09:51;;;;;;;;;;;29.60;99.90;;;;;;4995374;28;20296;-64
2023/01/26 01:12:18;;;;;;;;;;;29.70;99.90;;;;;;5012752;28;20000;-65
2023/01/26 01:14:45;;;;;;;;;;;30.10;99.90;;;;;;5012101;28;19997;-66
2023/01/26 01:17:11;;;;;;;;;;;30.60;99.90;;;;;;5013162;28;19916;-65
2023/01/26 01:19:38;;;;;;;;;;;31.20;99.90;;;;;;5013006;28;19964;-65
2023/01/26 01:22:05;;;;;;;;;;;32.00;99.90;;;;;;5012471;28;20028;-66
2023/01/26 01:24:34;;;;;;;;;;;32.80;99.90;;;;;;5032151;28;19971;-65
2023/01/26 01:27:01;;;;;;;;;;;33.30;99.90;;;;;;5036700;28;20000;-66
2023/01/26 01:29:27;;;;;;;;;;;33.50;99.90;;;;;;5024911;28;19921;-65
2023/01/26 01:31:54;;;;;;;;;;;33.30;99.90;;;;;;5016478;28;19944;-64
2023/01/26 01:34:21;;;;;;;;;;;33.10;99.90;;;;;;5016603;28;19913;-65
2023/01/26 01:36:47;;;;;;;;;;;33.40;99.90;;;;;;5016737;28;19913;-65
2023/01/26 01:39:14;;;;;;;;;;;33.50;99.90;;;;;;5016565;28;19994;-65
2023/01/26 01:41:40;;;;;;;;;;;33.40;99.90;;;;;;5031909;28;19909;-64
2023/01/26 01:44:14;;;;;;;;;;;33.30;99.90;;;;;;5015564;28;19953;-64
2023/01/26 01:46:57;;;;;;;;;;;33.00;99.90;;;;;;5016676;28;19999;-66
2023/01/26 01:49:26;;;;;;;;;;;33.10;99.90;;;;;;5016194;28;20000;-64
2023/01/26 01:51:53;;;;;;;;;;;33.30;99.90;;;;;;5016137;28;19994;-64
2023/01/26 01:54:22;;;;;;;;;;;33.30;99.90;;;;;;5016700;28;19916;-64
2023/01/26 01:56:52;;;;;;;;;;;33.30;99.90;;;;;;5017011;28;20252;-64
2023/01/26 01:59:20;;;;;;;;;;;33.10;99.90;;;;;;5014891;28;20269;-66
2023/01/26 02:01:47;;;;;;;;;;;32.90;99.90;;;;;;5014898;28;19918;-65
2023/01/26 02:04:14;;;;;;;;;;;32.50;99.90;;;;;;5018565;28;19909;-74
2023/01/26 02:06:47;;;;;;;;;;;32.00;99.90;;;;;;5017053;28;19909;-75
2023/01/26 02:12:02;;;;;;;;;;;31.10;99.90;;;;;;4974962;28;19917;-73
2023/01/26 02:14:31;;;;;;;;;;;30.70;99.90;;;;;;5015382;28;19914;-69
2023/01/26 02:16:58;;;;;;;;;;;30.50;99.90;;;;;;5016064;28;19910;-69
2023/01/26 02:19:36;;;;;;;;;;;30.40;99.90;;;;;;5015788;28;20447;-70
2023/01/26 02:22:10;;;;;;;;;;;30.40;99.90;;;;;;5015576;28;19913;-73
2023/01/26 02:24:38;;;;;;;;;;;30.40;99.90;;;;;;5015697;28;19963;-71
2023/01/26 02:27:04;;;;;;;;;;;30.40;99.90;;;;;;5015728;28;19913;-75
2023/01/26 02:29:31;;;;;;;;;;;30.30;99.90;;;;;;5015265;28;19918;-71
2023/01/26 02:31:58;;;;;;;;;;;30.20;99.90;;;;;;5015225;28;20538;-71
2023/01/26 02:34:27;;;;;;;;;;;30.00;99.90;;;;;;5015224;28;19909;-68
2023/01/26 02:37:00;;;;;;;;;;;29.90;99.90;;;;;;5015302;28;19910;-69
2023/01/26 02:39:38;;;;;;;;;;;29.80;99.90;;;;;;5014483;28;19952;-73
2023/01/26 02:42:53;;;;;;;;;;;29.90;99.90;;;;;;5014207;28;19960;-69
2023/01/26 02:44:51;;;;;;;;;;;29.90;99.90;;;;;;5014974;28;19955;-72
2023/01/26 02:47:18;;;;;;;;;;;29.90;99.90;;;;;;5015246;28;19941;-68
2023/01/26 02:49:49;;;;;;;;;;;29.80;99.90;;;;;;5015296;28;20549;-76
2023/01/26 02:52:17;;;;;;;;;;;29.50;99.90;;;;;;5013846;28;19921;-75
2023/01/26 02:57:29;;;;;;;;;;;29.50;99.90;;;;;;5014534;28;19995;-75
2023/01/26 02:59:56;;;;;;;;;;;29.60;99.90;;;;;;5015082;28;19972;-69
2023/01/26 03:02:23;;;;;;;;;;;29.50;99.90;;;;;;5014827;28;19909;-71
2023/01/26 03:04:50;;;;;;;;;;;29.50;99.90;;;;;;5015113;28;19909;-75
2023/01/26 03:07:17;;;;;;;;;;;29.50;99.90;;;;;;5014886;28;19909;-72
2023/01/26 03:09:43;;;;;;;;;;;29.30;99.90;;;;;;5015132;28;19921;-73
2023/01/26 03:12:10;;;;;;;;;;;29.20;99.90;;;;;;5013690;28;19937;-69
2023/01/26 03:14:36;;;;;;;;;;;29.20;99.90;;;;;;5014995;28;20252;-68
2023/01/26 03:17:03;;;;;;;;;;;29.30;99.90;;;;;;5014883;28;19914;-70
2023/01/26 03:27:48;;;;;;;;;;;29.20;99.90;;;;;;5025146;28;19967;-73
2023/01/26 03:30:15;;;;;;;;;;;29.30;99.90;;;;;;5014474;28;20028;-74
2023/01/26 03:32:42;;;;;;;;;;;29.30;99.90;;;;;;5014117;28;19916;-72
2023/01/26 03:35:14;;;;;;;;;;;29.30;99.90;;;;;;5014351;28;19910;-74
2023/01/26 03:37:42;;;;;;;;;;;29.50;99.90;;;;;;5014327;28;20000;-75
2023/01/26 03:56:38;;;;;;;;;;;28.90;99.90;;;;;;5013740;28;20352;-71
2023/01/26 03:59:08;;;;;;;;;;;28.90;99.90;;;;;;5013838;28;19914;-75
2023/01/26 04:01:36;;;;;;;;;;;28.70;99.90;;;;;;5013478;28;19920;-73
2023/01/26 04:09:34;;;;;;;;;;;28.30;99.90;;;;;;5013892;28;19928;-75
2023/01/26 04:12:00;;;;;;;;;;;28.30;99.90;;;;;;5012788;28;20003;-72
2023/01/26 04:22:44;;;;;;;;;;;27.80;99.90;;;;;;5014103;28;19921;-73
2023/01/26 04:25:12;;;;;;;;;;;27.70;99.90;;;;;;5033481;28;19909;-72
2023/01/26 04:27:39;;;;;;;;;;;27.60;99.90;;;;;;5016119;28;19914;-69
2023/01/26 04:30:07;;;;;;;;;;;27.60;99.90;;;;;;5013547;28;19928;-70
2023/01/26 04:32:33;;;;;;;;;;;27.60;99.90;;;;;;5013266;28;19910;-72
2023/01/26 04:35:00;;;;;;;;;;;27.50;99.90;;;;;;5013311;28;19909;-72
2023/01/26 04:37:27;;;;;;;;;;;27.40;99.90;;;;;;5013334;28;20360;-74
2023/01/26 04:39:53;;;;;;;;;;;27.30;99.90;;;;;;5013618;28;20303;-69
2023/01/26 04:42:23;;;;;;;;;;;27.30;99.90;;;;;;5012389;28;19945;-74
2023/01/26 04:44:53;;;;;;;;;;;27.30;99.90;;;;;;5012764;28;19913;-75
2023/01/26 04:47:20;;;;;;;;;;;27.20;99.90;;;;;;5013143;28;19910;-69
2023/01/26 04:49:47;;;;;;;;;;;27.20;99.90;;;;;;5013129;28;19929;-75
2023/01/26 04:52:14;;;;;;;;;;;27.10;99.90;;;;;;5012831;28;20383;-72
2023/01/26 04:54:40;;;;;;;;;;;27.00;99.90;;;;;;5013131;28;20483;-74
2023/01/26 04:57:07;;;;;;;;;;;27.00;99.90;;;;;;5012255;28;19909;-73
2023/01/26 04:59:34;;;;;;;;;;;26.90;99.90;;;;;;5012667;28;19925;-75
2023/01/26 05:02:00;;;;;;;;;;;26.90;99.90;;;;;;5012761;28;19948;-74
2023/01/26 05:04:27;;;;;;;;;;;26.90;99.90;;;;;;5013136;28;19909;-75
2023/01/26 05:06:54;;;;;;;;;;;26.80;99.90;;;;;;5012915;28;19913;-74
2023/01/26 05:09:20;;;;;;;;;;;26.80;99.90;;;;;;5012877;28;20376;-73
2023/01/26 05:11:47;;;;;;;;;;;26.80;99.90;;;;;;5011781;28;19933;-71
2023/01/26 05:14:14;;;;;;;;;;;26.80;99.90;;;;;;5013001;28;20356;-75
2023/01/26 05:16:41;;;;;;;;;;;26.70;99.90;;;;;;5012975;28;19910;-72
2023/01/26 05:19:08;;;;;;;;;;;26.70;99.90;;;;;;5012953;28;19909;-67
2023/01/26 05:21:34;;;;;;;;;;;26.70;99.90;;;;;;5012241;28;19959;-71
2023/01/26 05:24:01;;;;;;;;;;;26.70;99.90;;;;;;5012910;28;20016;-75
2023/01/26 05:26:28;;;;;;;;;;;26.80;99.90;;;;;;5011980;28;19914;-74
2023/01/26 05:28:54;;;;;;;;;;;26.90;99.90;;;;;;5012778;28;19917;-72
2023/01/26 05:31:21;;;;;;;;;;;26.90;99.90;;;;;;5012463;28;19932;-68
2023/01/26 05:33:48;;;;;;;;;;;26.90;99.90;;;;;;5012959;28;20023;-74
2023/01/26 05:36:14;;;;;;;;;;;27.00;99.90;;;;;;5012919;28;19910;-69
2023/01/26 05:38:41;;;;;;;;;;;27.10;99.90;;;;;;5012810;28;19910;-71
2023/01/26 05:41:08;;;;;;;;;;;27.20;99.90;;;;;;5012043;28;19992;-69
2023/01/26 05:43:34;;;;;;;;;;;27.40;99.90;;;;;;5012484;28;19956;-70
2023/01/26 05:46:01;;;;;;;;;;;27.50;99.90;;;;;;5012909;28;19909;-66
2023/01/26 05:48:27;;;;;;;;;;;27.60;99.90;;;;;;5012852;28;19910;-75
2023/01/26 05:50:56;;;;;;;;;;;27.60;99.90;;;;;;5011365;28;19921;-76
2023/01/26 05:53:22;;;;;;;;;;;27.70;99.90;;;;;;5009291;28;19914;-71
2023/01/26 05:55:49;;;;;;;;;;;27.70;99.90;;;;;;5010793;28;19909;-74
2023/01/26 05:58:16;;;;;;;;;;;27.70;99.90;;;;;;5010806;28;19988;-73
2023/01/26 06:00:42;;;;;;;;;;;27.80;99.90;;;;;;5010558;28;19980;-75
2023/01/26 06:03:09;;;;;;;;;;;27.90;99.90;;;;;;5010198;28;20645;-74
2023/01/26 06:05:37;;;;;;;;;;;27.80;99.90;;;;;;5010115;28;19922;-67
2023/01/26 06:08:04;;;;;;;;;;;27.70;99.90;;;;;;5009755;28;19917;-71
2023/01/26 06:10:30;;;;;;;;;;;27.70;99.90;;;;;;5013646;28;19928;-74
2023/01/26 06:12:58;;;;;;;;;;;27.70;99.90;;;;;;5013766;28;19917;-71
2023/01/26 06:15:24;;;;;;;;;;;27.60;99.90;;;;;;5013824;28;19913;-75
2023/01/26 06:17:51;;;;;;;;;;;27.60;99.90;;;;;;5013523;28;20032;-74
2023/01/26 06:20:18;;;;;;;;;;;27.50;99.90;;;;;;5013611;28;19941;-72
2023/01/26 06:22:44;;;;;;;;;;;27.50;99.90;;;;;;5013827;28;19913;-71
2023/01/26 06:25:11;;;;;;;;;;;27.50;99.90;;;;;;5018785;28;19913;-71
2023/01/26 06:27:40;;;;;;;;;;;27.40;99.90;;;;;;5012113;28;19913;-75
2023/01/26 06:30:08;;;;;;;;;;;27.50;99.90;;;;;;5013253;28;19965;-71
2023/01/26 06:32:36;;;;;;;;;;;27.40;99.90;;;;;;5013202;28;19963;-73
2023/01/26 06:35:05;;;;;;;;;;;27.30;99.90;;;;;;5012545;28;19940;-69
2023/01/26 06:37:32;;;;;;;;;;;27.30;99.90;;;;;;5013219;28;20316;-73
2023/01/26 06:39:59;;;;;;;;;;;27.20;99.90;;;;;;5013554;28;19909;-70
2023/01/26 06:42:25;;;;;;;;;;;27.20;99.90;;;;;;5013107;28;19913;-73
2023/01/26 06:44:52;;;;;;;;;;;27.10;99.90;;;;;;5013106;28;19967;-74
2023/01/26 06:47:19;;;;;;;;;;;27.00;99.90;;;;;;5013098;28;20729;-69
2023/01/26 06:49:45;;;;;;;;;;;27.00;99.90;;;;;;5012367;28;20015;-73
2023/01/26 06:52:22;;;;;;;;;;;27.00;99.90;;;;;;5013099;28;19917;-73
2023/01/26 06:54:49;;;;;;;;;;;26.90;99.90;;;;;;5013486;28;20280;-73
2023/01/26 06:57:16;;;;;;;;;;;26.90;99.90;;;;;;5012666;28;20480;-75
2023/01/26 06:59:42;;;;;;;;;;;26.80;99.90;;;;;;5013086;28;19929;-69
2023/01/26 07:02:17;;;;;;;;;;;26.80;99.90;;;;;;5012236;28;20218;-74
2023/01/26 07:04:44;;;;;;;;;;;26.80;99.90;;;;;;5012255;28;20008;-70
2023/01/26 07:07:10;;;;;;;;;;;26.70;99.90;;;;;;5013053;28;19917;-74
2023/01/26 07:09:37;;;;;;;;;;;26.60;99.90;;;;;;5012575;28;19918;-71
2023/01/26 07:12:04;;;;;;;;;;;26.50;99.90;;;;;;5012679;28;19968;-73
2023/01/26 07:14:33;;;;;;;;;;;26.50;99.90;;;;;;5013056;28;19915;-72
2023/01/26 07:17:00;;;;;;;;;;;26.50;99.90;;;;;;5012795;28;19909;-71
2023/01/26 07:19:29;;;;;;;;;;;26.40;99.90;;;;;;5011767;28;20415;-75
2023/01/26 07:21:55;;;;;;;;;;;26.30;99.90;;;;;;5012358;28;19914;-72
2023/01/26 07:24:22;;;;;;;;;;;26.30;99.90;;;;;;5026507;28;19916;-73
2023/01/26 07:26:49;;;;;;;;;;;26.30;99.90;;;;;;5032364;28;19909;-75
2023/01/26 07:29:15;;;;;;;;;;;26.20;99.90;;;;;;5031982;28;19944;-70
2023/01/26 07:31:43;;;;;;;;;;;26.20;99.90;;;;;;5032102;28;19913;-70
2023/01/26 07:34:10;;;;;;;;;;;26.20;99.90;;;;;;5020587;28;19913;-75
2023/01/26 07:36:37;;;;;;;;;;;26.20;99.90;;;;;;5012221;28;20004;-73
2023/01/26 07:39:04;;;;;;;;;;;26.20;99.90;;;;;;5012250;28;19921;-74
2023/01/26 07:41:31;;;;;;;;;;;26.20;99.90;;;;;;5011964;28;20364;-74
2023/01/26 07:43:58;;;;;;;;;;;26.20;99.90;;;;;;5012335;28;19909;-75
2023/01/26 07:46:25;;;;;;;;;;;26.20;99.90;;;;;;5012227;28;20005;-74
2023/01/26 07:48:51;;;;;;;;;;;26.20;99.90;;;;;;5011030;28;19913;-71
2023/01/26 07:51:18;;;;;;;;;;;26.20;99.90;;;;;;5011875;28;19959;-73
2023/01/26 07:53:48;;;;;;;;;;;26.20;99.90;;;;;;5012128;28;19996;-74
2023/01/26 07:56:17;;;;;;;;;;;26.20;99.90;;;;;;5012237;28;20044;-71
2023/01/26 07:58:48;;;;;;;;;;;26.20;99.90;;;;;;5012108;28;19914;-74
2023/01/26 08:01:16;;;;;;;;;;;26.40;99.90;;;;;;5011491;28;20045;-74
2023/01/26 08:03:44;;;;;;;;;;;26.40;99.90;;;;;;5011067;28;20011;-66
2023/01/26 08:06:11;;;;;;;;;;;26.30;99.90;;;;;;5011168;28;19920;-73
2023/01/26 08:08:41;;;;;;;;;;;26.00;99.90;;;;;;5011738;28;19921;-70
2023/01/26 08:11:08;;;;;;;;;;;25.90;99.90;;;;;;5012500;28;19917;-69
2023/01/26 08:13:35;;;;;;;;;;;25.80;99.90;;;;;;5013637;28;19909;-72
2023/01/26 08:16:03;;;;;;;;;;;25.70;99.90;;;;;;5013745;28;20253;-73
2023/01/26 08:18:30;;;;;;;;;;;25.70;99.90;;;;;;5012449;28;19937;-70
2023/01/26 08:20:57;;;;;;;;;;;25.70;99.90;;;;;;5013695;28;20026;-74
2023/01/26 08:23:24;;;;;;;;;;;25.70;99.90;;;;;;5019122;28;20001;-74
2023/01/26 08:25:50;;;;;;;;;;;25.70;99.90;;;;;;5033308;28;19909;-72
2023/01/26 08:28:17;;;;;;;;;;;25.80;99.90;;;;;;5033274;28;19996;-74
2023/01/26 08:30:43;;;;;;;;;;;25.80;99.90;;;;;;5031657;28;20288;-74
2023/01/26 08:33:10;;;;;;;;;;;25.80;99.90;;;;;;5016077;28;20087;-72
2023/01/26 08:35:38;;;;;;;;;;;26.00;99.90;;;;;;5003531;28;19924;-73
2023/01/26 08:38:05;;;;;;;;;;;26.20;99.90;;;;;;5003964;28;19995;-71
2023/01/26 08:40:31;;;;;;;;;;;26.20;99.90;;;;;;5004253;28;20032;-74
2023/01/26 08:43:01;;;;;;;;;;;26.10;99.90;;;;;;5004323;28;20642;-71
2023/01/26 08:45:28;;;;;;;;;;;26.10;99.90;;;;;;5004252;28;19920;-72
2023/01/26 08:47:55;;;;;;;;;;;26.10;99.90;;;;;;5004946;28;19913;-75
2023/01/26 08:50:22;;;;;;;;;;;26.00;99.90;;;;;;5004238;28;19922;-74
2023/01/26 08:52:48;;;;;;;;;;;26.00;99.90;;;;;;5004316;28;19914;-75
2023/01/26 08:55:15;;;;;;;;;;;26.00;99.90;;;;;;5004086;28;20569;-74
2023/01/26 08:57:41;;;;;;;;;;;26.10;99.90;;;;;;5003505;28;19917;-75
2023/01/26 09:00:09;;;;;;;;;;;26.10;99.90;;;;;;5004169;28;20425;-74
2023/01/26 09:02:35;;;;;;;;;;;26.10;99.90;;;;;;5004275;28;19992;-75
2023/01/26 09:05:02;;;;;;;;;;;26.00;99.90;;;;;;5004612;28;19913;-74
2023/01/26 09:07:29;;;;;;;;;;;25.90;99.90;;;;;;5004361;28;19913;-75
2023/01/26 09:09:55;;;;;;;;;;;25.80;99.90;;;;;;5003858;28;20028;-76
2023/01/26 09:12:22;;;;;;;;;;;25.90;99.90;;;;;;5004023;28;20011;-75
2023/01/26 09:14:49;;;;;;;;;;;25.80;99.90;;;;;;5004182;28;20000;-75
2023/01/26 09:17:15;;;;;;;;;;;25.80;99.90;;;;;;5004232;28;20690;-74
2023/01/26 09:19:42;;;;;;;;;;;25.70;99.90;;;;;;5004360;28;20004;-71
2023/01/26 09:22:09;;;;;;;;;;;25.70;99.90;;;;;;5018438;28;19925;-76
2023/01/26 09:24:35;;;;;;;;;;;25.70;99.90;;;;;;5019111;28;19920;-75
2023/01/26 09:27:02;;;;;;;;;;;25.70;99.90;;;;;;5024063;28;19917;-73
2023/01/26 09:29:29;;;;;;;;;;;25.70;99.90;;;;;;5023426;28;20038;-72
2023/01/26 09:31:55;;;;;;;;;;;25.70;99.90;;;;;;5023707;28;19920;-74
2023/01/26 09:34:24;;;;;;;;;;;25.70;99.90;;;;;;5023473;28;19913;-72
2023/01/26 09:36:50;;;;;;;;;;;25.70;99.90;;;;;;5024385;28;19913;-71
2023/01/26 09:39:17;;;;;;;;;;;25.70;99.90;;;;;;5006736;28;19914;-77
2023/01/26 09:41:56;;;;;;;;;;;25.60;99.90;;;;;;5012549;28;20366;-72
2023/01/26 09:44:26;;;;;;;;;;;25.60;99.90;;;;;;5014619;28;19909;-75
2023/01/26 09:46:53;;;;;;;;;;;25.60;99.90;;;;;;5016824;28;19909;-75
2023/01/26 09:49:25;;;;;;;;;;;25.60;99.90;;;;;;5016449;28;19914;-74
2023/01/26 09:52:02;;;;;;;;;;;25.60;99.90;;;;;;5016023;28;19941;-67
2023/01/26 09:54:36;;;;;;;;;;;25.60;99.90;;;;;;4997069;28;19914;-74
2023/01/26 09:57:10;;;;;;;;;;;25.60;99.90;;;;;;4997212;28;19917;-76
2023/01/26 09:59:54;;;;;;;;;;;25.60;99.90;;;;;;4995677;28;19928;-74
2023/01/26 10:02:21;;;;;;;;;;;25.50;99.90;;;;;;4988183;28;19914;-76
2023/01/26 10:04:51;;;;;;;;;;;25.60;99.90;;;;;;4988329;28;19914;-77
2023/01/26 10:07:17;;;;;;;;;;;25.50;99.90;;;;;;4993601;28;19917;-76
2023/01/26 10:09:49;;;;;;;;;;;25.50;99.90;;;;;;5007011;28;19925;-74
2023/01/26 10:12:29;;;;;;;;;;;25.60;99.90;;;;;;5006740;28;20295;-73
2023/01/26 10:15:15;;;;;;;;;;;25.50;99.90;;;;;;5007469;28;19958;-74
2023/01/26 10:17:43;;;;;;;;;;;25.50;99.90;;;;;;5007727;28;20012;-73
2023/01/26 10:20:30;;;;;;;;;;;25.50;99.90;;;;;;5007415;28;19913;-68
2023/01/26 10:23:03;;;;;;;;;;;25.50;99.90;;;;;;5009031;28;19917;-77
2023/01/26 10:25:33;;;;;;;;;;;25.30;99.90;;;;;;5027222;28;19920;-76
2023/01/26 10:28:01;;;;;;;;;;;25.20;99.90;;;;;;5026886;28;20615;-76
2023/01/26 10:30:28;;;;;;;;;;;25.10;99.90;;;;;;5027352;28;20332;-77
2023/01/26 10:32:55;;;;;;;;;;;25.10;99.90;;;;;;5026744;28;20356;-69
2023/01/26 10:35:23;;;;;;;;;;;25.00;99.90;;;;;;5026887;28;20028;-74
2023/01/26 10:37:53;;;;;;;;;;;25.10;99.90;;;;;;5011519;28;20628;-74
2023/01/26 10:40:20;;;;;;;;;;;25.10;99.90;;;;;;5005605;28;20813;-76
2023/01/26 10:42:55;;;;;;;;;;;25.00;99.90;;;;;;5007045;28;19956;-77
2023/01/26 10:45:24;;;;;;;;;;;25.00;99.90;;;;;;5007130;28;19913;-76
2023/01/26 10:48:09;;;;;;;;;;;25.00;99.90;;;;;;5006410;28;20517;-77
2023/01/26 10:50:35;;;;;;;;;;;25.00;99.90;;;;;;5006966;28;19999;-75
2023/01/26 10:53:03;;;;;;;;;;;24.90;99.90;;;;;;5006835;28;19920;-74
2023/01/26 10:55:31;;;;;;;;;;;24.90;99.90;;;;;;5006474;28;19913;-78
2023/01/26 10:57:58;;;;;;;;;;;24.80;99.90;;;;;;5007310;28;19920;-72
2023/01/26 11:00:29;;;;;;;;;;;24.80;99.90;;;;;;5006756;28;19925;-77
2023/01/26 11:03:16;;;;;;;;;;;24.70;99.90;;;;;;5005681;28;19924;-76
2023/01/26 11:05:45;;;;;;;;;;;24.60;99.90;;;;;;5006549;28;20016;-75
2023/01/26 11:08:33;;;;;;;;;;;24.40;99.90;;;;;;5006544;28;19959;-76
2023/01/26 11:11:00;;;;;;;;;;;24.30;99.90;;;;;;5005547;28;19926;-77
2023/01/26 11:13:27;;;;;;;;;;;24.20;99.90;;;;;;5006512;28;19913;-75
2023/01/26 11:16:02;;;;;;;;;;;24.30;99.90;;;;;;5006699;28;19921;-77
2023/01/26 11:18:41;;;;;;;;;;;24.30;99.90;;;;;;5006701;28;19913;-73
2023/01/26 11:21:31;;;;;;;;;;;24.20;99.90;;;;;;5005993;28;19921;-77
2023/01/26 11:24:08;;;;;;;;;;;24.20;99.90;;;;;;5009304;28;19975;-78
2023/01/26 11:26:40;;;;;;;;;;;24.10;99.90;;;;;;5011550;28;19918;-77
2023/01/26 11:29:25;;;;;;;;;;;24.00;99.90;;;;;;5006239;28;19917;-78
2023/01/26 11:32:07;;;;;;;;;;;24.00;99.90;;;;;;5006102;28;19963;-75
2023/01/26 11:34:49;;;;;;;;;;;24.00;99.90;;;;;;5005937;28;19960;-77
2023/01/26 11:37:25;;;;;;;;;;;24.00;99.90;;;;;;5005990;28;20387;-76
2023/01/26 11:39:58;;;;;;;;;;;23.90;99.90;;;;;;5005586;28;19914;-73
2023/01/26 11:42:50;;;;;;;;;;;23.90;99.90;;;;;;5004923;28;20542;-77
2023/01/26 11:45:22;;;;;;;;;;;23.90;99.90;;;;;;5006271;28;19919;-79
2023/01/26 11:47:49;;;;;;;;;;;23.90;99.90;;;;;;5005722;28;19913;-74
2023/01/26 11:50:20;;;;;;;;;;;23.90;99.90;;;;;;5006091;28;20020;-75
2023/01/26 11:52:56;;;;;;;;;;;23.80;99.90;;;;;;5005872;28;19917;-75
2023/01/26 11:55:37;;;;;;;;;;;23.80;99.90;;;;;;5005388;28;20411;-75
2023/01/26 11:58:23;;;;;;;;;;;23.70;99.90;;;;;;5006189;28;19917;-74
2023/01/26 12:00:55;;;;;;;;;;;23.60;99.90;;;;;;5005219;28;19961;-76
2023/01/26 12:03:28;;;;;;;;;;;23.60;99.90;;;;;;5005743;28;19956;-75
2023/01/26 12:06:00;;;;;;;;;;;23.60;99.90;;;;;;5005769;28;19921;-75
2023/01/26 12:08:47;;;;;;;;;;;23.60;99.90;;;;;;5010600;28;20276;-76
2023/01/26 12:11:46;;;;;;;;;;;23.50;99.90;;;;;;5012650;28;19929;-76
2023/01/26 12:14:13;;;;;;;;;;;23.50;99.90;;;;;;4980712;28;19920;-76
2023/01/26 12:16:42;;;;;;;;;;;23.50;99.90;;;;;;5014312;28;19909;-77
2023/01/26 12:19:14;;;;;;;;;;;23.50;99.90;;;;;;5014140;28;19923;-77
2023/01/26 12:21:43;;;;;;;;;;;23.50;99.90;;;;;;5013777;28;19988;-67
2023/01/26 12:24:13;;;;;;;;;;;23.50;99.90;;;;;;5023270;28;19909;-70
2023/01/26 12:26:46;;;;;;;;;;;23.40;99.90;;;;;;5013865;28;19940;-67
2023/01/26 12:29:16;;;;;;;;;;;23.40;99.90;;;;;;5013653;28;20360;-64
2023/01/26 12:31:52;;;;;;;;;;;23.40;99.90;;;;;;5013672;28;19935;-69
2023/01/26 12:34:22;;;;;;;;;;;23.40;99.90;;;;;;5013842;28;19909;-72
2023/01/26 12:36:55;;;;;;;;;;;23.40;99.90;;;;;;5013955;28;19964;-65
2023/01/26 12:39:22;;;;;;;;;;;23.40;99.90;;;;;;5012952;28;20004;-68
2023/01/26 12:42:00;;;;;;;;;;;23.30;99.90;;;;;;5012719;28;19913;-65
2023/01/26 12:44:36;;;;;;;;;;;23.30;99.90;;;;;;5013841;28;19941;-65
2023/01/26 12:47:20;;;;;;;;;;;23.40;99.90;;;;;;5013481;28;20020;-69
2023/01/26 12:49:59;;;;;;;;;;;23.40;99.90;;;;;;5013518;28;19921;-74
2023/01/26 12:52:44;;;;;;;;;;;23.30;99.90;;;;;;5013286;28;19909;-69
2023/01/26 12:55:26;;;;;;;;;;;23.30;99.90;;;;;;5013197;28;19920;-65
2023/01/26 12:57:55;;;;;;;;;;;23.20;99.90;;;;;;5013688;28;20040;-77
2023/01/26 13:00:23;;;;;;;;;;;23.20;99.90;;;;;;5013484;28;20387;-77
2023/01/26 13:02:56;;;;;;;;;;;23.20;99.90;;;;;;5012933;28;20345;-75
2023/01/26 13:05:27;;;;;;;;;;;23.20;99.90;;;;;;5013154;28;20004;-76
2023/01/26 13:07:53;;;;;;;;;;;23.20;99.90;;;;;;5013431;28;19968;-71
2023/01/26 13:10:22;;;;;;;;;;;23.30;99.90;;;;;;5011860;28;19921;-76
2023/01/26 13:12:57;;;;;;;;;;;23.30;99.90;;;;;;5013076;28;19917;-67
2023/01/26 13:15:28;;;;;;;;;;;23.30;99.90;;;;;;5013272;28;19996;-65
2023/01/26 13:17:55;;;;;;;;;;;23.40;99.90;;;;;;5013979;28;19959;-64
2023/01/26 13:20:22;;;;;;;;;;;23.30;99.90;;;;;;5017642;28;19917;-64
2023/01/26 13:22:49;;;;;;;;;;;23.40;99.90;;;;;;5018581;28;19910;-67
2023/01/26 13:25:33;;;;;;;;;;;23.30;99.90;;;;;;5016329;28;20305;-76
2023/01/26 13:28:01;;;;;;;;;;;23.30;99.90;;;;;;5017302;28;19910;-69
2023/01/26 13:30:30;;;;;;;;;;;23.30;99.90;;;;;;5017232;28;20276;-64
2023/01/26 13:33:12;;;;;;;;;;;23.30;99.90;;;;;;5016904;28;19909;-73
2023/01/26 13:35:39;;;;;;;;;;;23.30;99.90;;;;;;5017262;28;20390;-64
2023/01/26 13:38:22;;;;;;;;;;;23.20;99.90;;;;;;5016158;28;19914;-67
2023/01/26 13:40:49;;;;;;;;;;;23.10;99.90;;;;;;5016624;28;19909;-66
2023/01/26 13:43:21;;;;;;;;;;;23.10;99.90;;;;;;5016832;28;19909;-70
2023/01/26 13:45:51;;;;;;;;;;;23.10;99.90;;;;;;5016948;28;20264;-71
2023/01/26 13:48:28;;;;;;;;;;;23.10;99.90;;;;;;5012969;28;20314;-69
2023/01/26 13:50:58;;;;;;;;;;;23.10;99.90;;;;;;5014888;28;20020;-67
2023/01/26 13:53:36;;;;;;;;;;;23.20;99.90;;;;;;5012617;28;19960;-70
2023/01/26 13:56:18;;;;;;;;;;;23.20;99.90;;;;;;4997171;28;19910;-65
2023/01/26 13:58:45;;;;;;;;;;;23.20;99.90;;;;;;5007248;28;20315;-65
2023/01/26 14:01:12;;;;;;;;;;;23.20;99.90;;;;;;5016439;28;19922;-65
2023/01/26 14:03:39;;;;;;;;;;;23.20;99.90;;;;;;5008423;28;19917;-73
2023/01/26 14:06:08;;;;;;;;;;;23.20;99.90;;;;;;5016310;28;19913;-67
2023/01/26 14:08:35;;;;;;;;;;;23.10;99.90;;;;;;5010386;28;19948;-68
2023/01/26 14:11:04;;;;;;;;;;;23.10;99.90;;;;;;5009678;28;19928;-75
2023/01/26 14:13:38;;;;;;;;;;;23.10;99.90;;;;;;5014612;28;19913;-75
2023/01/26 14:16:05;;;;;;;;;;;23.10;99.90;;;;;;5010495;28;19914;-74
2023/01/26 14:18:32;;;;;;;;;;;23.00;99.90;;;;;;5014972;28;20001;-64
2023/01/26 14:21:05;;;;;;;;;;;23.10;99.90;;;;;;5015165;28;20336;-74
2023/01/26 14:23:35;;;;;;;;;;;23.10;99.90;;;;;;5008304;28;19917;-65
2023/01/26 14:26:04;;;;;;;;;;;23.10;99.90;;;;;;5014487;28;20452;-66
2023/01/26 14:28:33;;;;;;;;;;;23.10;99.90;;;;;;5008855;28;19968;-72
2023/01/26 14:31:13;;;;;;;;;;;23.10;99.90;;;;;;5008400;28;19975;-65
2023/01/26 14:33:40;;;;;;;;;;;23.10;99.90;;;;;;5014753;28;19956;-72
2023/01/26 14:36:13;;;;;;;;;;;23.10;99.90;;;;;;5014685;28;19917;-73
2023/01/26 14:38:41;;;;;;;;;;;23.10;99.90;;;;;;5013901;28;19913;-73
2023/01/26 14:41:12;;;;;;;;;;;23.10;99.90;;;;;;5013114;28;19951;-68
2023/01/26 14:43:38;;;;;;;;;;;23.20;99.90;;;;;;5014822;28;19910;-67
2023/01/26 14:46:28;;;;;;;;;;;23.00;99.90;;;;;;5014617;28;19910;-68
2023/01/26 14:49:00;;;;;;;;;;;23.10;99.90;;;;;;5003068;28;19960;-73
2023/01/26 14:51:28;;;;;;;;;;;23.00;99.90;;;;;;5013314;28;19913;-73
2023/01/26 14:53:56;;;;;;;;;;;23.00;99.90;;;;;;5013632;28;20392;-74
2023/01/26 14:56:29;;;;;;;;;;;23.00;99.90;;;;;;5012866;28;19913;-67
2023/01/26 14:58:56;;;;;;;;;;;23.00;99.90;;;;;;5014454;28;19955;-65
2023/01/26 15:01:24;;;;;;;;;;;23.00;99.90;;;;;;5013548;28;20289;-66
2023/01/26 15:03:56;;;;;;;;;;;22.90;99.90;;;;;;5014173;28;19913;-69
2023/01/26 15:06:26;;;;;;;;;;;23.00;99.90;;;;;;5010215;28;20426;-67
2023/01/26 15:08:58;;;;;;;;;;;23.00;99.90;;;;;;5012776;28;20084;-64
2023/01/26 15:14:37;;;;;;;;;;;22.90;99.90;;;;;;5011538;28;20009;-66
2023/01/26 15:17:04;;;;;;;;;;;22.90;99.90;;;;;;5011626;28;19921;-64